Meteorología y climatología de Navarra
Datos de la estación - Meteo Navarra

Estación de Bardenas (El Yugo) GN

Altitud 486 m.


Datos desde el 07/12/2018 hasta el 08/12/2018 en horario solar
Los datos son PROVISIONALES

Anterior Página 1 de 1 Siguiente Descargar: Formato para Excel 2000 o superior   Formato csv   Formato para OpenOffice Calc
Fecha Temperatura Humedad relativa Radiación global Insolación Precipitación Velocidad viento 10 m Velocidad viento 10 m Dirección viento 10 m
ºC % W/m² s l/m² m/s km/h º
07/12/2018 0:00 7.2 81 0.0 0 0.0 5.3 19.2 304
07/12/2018 0:10 7.0 82 0.0 0 0.0 5.3 19.1 308
07/12/2018 0:20 7.1 81 0.0 0 0.0 5.2 18.8 307
07/12/2018 0:30 6.9 82 0.0 0 0.0 5.3 19.2 304
07/12/2018 0:40 6.8 82 0.0 0 0.0 5.3 19.2 305
07/12/2018 0:50 6.8 82 0.0 0 0.0 5.2 18.6 309
07/12/2018 1:00 6.8 81 0.0 0 0.0 5.4 19.3 308
07/12/2018 1:10 6.7 81 0.0 0 0.0 5.3 19.2 309
07/12/2018 1:20 6.5 82 0.0 0 0.0 5.4 19.3 310
07/12/2018 1:30 6.5 82 0.0 0 0.0 5.4 19.3 311
07/12/2018 1:40 6.4 82 0.0 0 0.0 5.9 21.1 316
07/12/2018 1:50 6.4 82 0.0 0 0.0 5.8 20.7 315
07/12/2018 2:00 6.3 82 0.0 0 0.0 6.2 22.5 313
07/12/2018 2:10 6.2 82 0.0 0 0.0 6.3 22.5 312
07/12/2018 2:20 6.2 81 0.0 0 0.0 6.0 21.7 313
07/12/2018 2:30 6.1 82 0.0 0 0.0 5.6 20.3 304
07/12/2018 2:40 5.8 83 0.0 0 0.0 5.5 19.7 300
07/12/2018 2:50 5.7 83 0.0 0 0.0 5.8 20.8 301
07/12/2018 3:00 5.7 83 0.0 0 0.0 5.5 19.7 301
07/12/2018 3:10 5.6 84 0.0 0 0.0 5.3 19.1 302
07/12/2018 3:20 5.6 84 0.0 0 0.0 5.2 18.6 299
07/12/2018 3:30 5.4 84 0.0 0 0.0 4.9 17.6 301
07/12/2018 3:40 5.4 84 0.0 0 0.0 4.2 15.0 304
07/12/2018 3:50 5.2 85 0.0 0 0.0 3.7 13.2 311
07/12/2018 4:00 5.2 85 0.0 0 0.0 3.7 13.2 316
07/12/2018 4:10 5.4 84 0.0 0 0.0 3.3 12.0 318
07/12/2018 4:20 5.3 84 0.0 0 0.0 3.3 12.0 317
07/12/2018 4:30 5.1 85 0.0 0 0.0 3.1 11.0 312
07/12/2018 4:40 5.1 85 0.0 0 0.0 3.2 11.4 310
07/12/2018 4:50 5.1 85 0.0 0 0.0 2.8 10.0 316
07/12/2018 5:00 5.3 85 0.0 0 0.0 3.7 13.2 306
07/12/2018 5:10 5.4 84 0.0 0 0.0 4.1 14.7 305
07/12/2018 5:20 5.5 84 0.0 0 0.0 3.9 13.9 298
07/12/2018 5:30 5.2 85 0.0 0 0.0 3.8 13.8 292
07/12/2018 5:40 5.0 86 0.0 0 0.0 4.0 14.3 288
07/12/2018 5:50 4.6 87 0.0 0 0.0 3.6 13.0 278
07/12/2018 6:00 4.4 89 0.0 0 0.0 3.6 12.9 279
07/12/2018 6:10 4.4 89 0.0 0 0.0 3.6 12.9 288
07/12/2018 6:20 4.5 89 0.0 0 0.0 3.2 11.6 293
07/12/2018 6:30 4.4 89 0.0 0 0.0 3.6 13.1 295
07/12/2018 6:40 4.3 89 0.0 0 0.0 3.9 14.1 294
07/12/2018 6:50 4.3 89 0.0 0 0.0 3.4 12.2 295
07/12/2018 7:00 4.4 89 0.0 0 0.0 3.2 11.4 297
07/12/2018 7:10 4.6 88 0.0 0 0.0 3.6 12.9 298
07/12/2018 7:20 5.1 85 0.0 0 0.0 4.2 15.0 311
07/12/2018 7:30 5.6 83 0.0 0 0.0 4.2 15.0 312
07/12/2018 7:40 5.7 82 21.8 30 0.0 4.5 16.1 318
07/12/2018 7:50 5.8 82 41.3 600 0.0 4.1 14.6 315
07/12/2018 8:00 5.4 83 63.6 600 0.0 4.0 14.4 306
07/12/2018 8:10 5.3 84 87.6 600 0.0 4.2 15.2 304
07/12/2018 8:20 5.3 84 111.7 600 0.0 4.2 15.3 299
07/12/2018 8:30 5.2 84 135.9 600 0.0 4.0 14.5 303
07/12/2018 8:40 5.4 84 160.9 600 0.0 4.9 17.6 292
07/12/2018 8:50 5.9 82 185.3 600 0.0 4.8 17.4 294
07/12/2018 9:00 6.2 81 209.5 600 0.0 4.7 17.1 293
07/12/2018 9:10 6.3 81 232.9 600 0.0 4.6 16.4 295
07/12/2018 9:20 6.6 80 256.1 600 0.0 4.9 17.5 302
07/12/2018 9:30 6.8 78 277.9 600 0.0 4.8 17.1 307
07/12/2018 9:40 7.0 78 299.4 600 0.0 5.5 19.7 307
07/12/2018 9:50 7.3 77 319.3 600 0.0 4.7 16.9 307
07/12/2018 10:00 7.4 76 339.1 600 0.0 4.6 16.4 299
07/12/2018 10:10 7.6 76 356.8 600 0.0 4.1 14.9 301
07/12/2018 10:20 8.0 74 372.1 600 0.0 3.9 14.2 301
07/12/2018 10:30 8.2 74 386.1 600 0.0 4.9 17.6 298
07/12/2018 10:40 8.3 74 399.6 600 0.0 5.5 19.8 299
07/12/2018 10:50 8.5 75 411.2 600 0.0 5.1 18.3 298
07/12/2018 11:00 8.7 74 421.7 600 0.0 4.5 16.0 302
07/12/2018 11:10 9.1 74 431.2 600 0.0 4.1 14.8 291
07/12/2018 11:20 9.1 74 438.9 600 0.0 4.9 17.7 302
07/12/2018 11:30 9.3 74 444.7 600 0.0 4.6 16.6 304
07/12/2018 11:40 9.7 73 449.0 600 0.0 4.9 17.5 299
07/12/2018 11:50 9.9 72 452.6 600 0.0 5.0 18.1 302
07/12/2018 12:00 10.2 72 456.7 600 0.0 4.2 15.0 307
07/12/2018 12:10 10.7 70 459.2 600 0.0 4.6 16.7 315
07/12/2018 12:20 10.9 70 438.9 600 0.0 4.7 17.0 317
07/12/2018 12:30 11.1 70 440.3 600 0.0 3.2 11.7 320
07/12/2018 12:40 11.4 69 433.3 600 0.0 3.7 13.4 332
07/12/2018 12:50 11.4 69 424.5 600 0.0 3.7 13.4 335
07/12/2018 13:00 11.5 69 415.6 600 0.0 3.9 14.0 340
07/12/2018 13:10 11.5 69 404.5 600 0.0 3.9 14.0 334
07/12/2018 13:20 11.8 68 392.3 600 0.0 3.8 13.7 324
07/12/2018 13:30 11.9 69 380.6 600 0.0 3.7 13.2 334
07/12/2018 13:40 12.1 68 365.7 600 0.0 3.8 13.8 333
07/12/2018 13:50 12.1 68 350.4 600 0.0 4.0 14.3 332
07/12/2018 14:00 12.1 68 333.1 600 0.0 4.1 14.6 333
07/12/2018 14:10 12.2 68 315.6 600 0.0 4.0 14.2 329
07/12/2018 14:20 12.3 67 297.1 600 0.0 5.0 17.9 329
07/12/2018 14:30 12.3 67 276.3 600 0.0 4.7 17.0 329
07/12/2018 14:40 12.3 67 255.0 600 0.0 5.2 18.6 322
07/12/2018 14:50 12.6 67 232.3 600 0.0 5.0 18.1 300
07/12/2018 15:00 12.6 67 207.5 600 0.0 5.0 18.0 305
07/12/2018 15:10 12.7 68 184.6 600 0.0 5.2 18.5 298
07/12/2018 15:20 12.8 68 160.2 600 0.0 5.6 20.0 293
07/12/2018 15:30 12.5 68 136.0 600 0.0 7.4 26.6 295
07/12/2018 15:40 12.2 68 108.3 600 0.0 7.9 28.3 298
07/12/2018 15:50 12.0 68 73.5 546 0.0 7.5 26.8 301
07/12/2018 16:00 11.7 69 49.8 194 0.0 5.9 21.4 311
07/12/2018 16:10 11.4 69 34.9 32 0.0 6.3 22.6 321
07/12/2018 16:20 11.3 70 22.4 46 0.0 5.0 17.8 318
07/12/2018 16:30 11.2 70 0.9 0 0.0 5.4 19.3 320
07/12/2018 16:40 11.2 70 0.0 0 0.0 5.4 19.3 323
07/12/2018 16:50 11.0 71 0.0 0 0.0 4.8 17.4 322
07/12/2018 17:00 10.9 72 0.0 0 0.0 4.3 15.6 328
07/12/2018 17:10 10.7 73 0.0 0 0.0 5.0 18.1 333
07/12/2018 17:20 10.7 74 0.0 0 0.0 4.3 15.3 337
07/12/2018 17:30 10.3 75 0.0 0 0.0 4.4 16.0 335
07/12/2018 17:40 10.2 75 0.0 0 0.0 7.0 25.1 321
07/12/2018 17:50 10.1 75 0.0 0 0.0 6.9 24.9 321
07/12/2018 18:00 10.0 76 0.0 0 0.0 7.1 25.6 315
07/12/2018 18:10 9.9 76 0.0 0 0.0 6.9 25.0 315
07/12/2018 18:20 9.9 77 0.0 0 0.0 7.4 26.5 326
07/12/2018 18:30 10.1 76 0.0 0 0.0 7.5 27.0 318
07/12/2018 18:40 10.2 76 0.0 0 0.0 7.4 26.5 319
07/12/2018 18:50 10.1 76 0.0 0 0.0 7.6 27.5 324
07/12/2018 19:00 10.0 77 0.0 0 0.0 8.0 28.9 325
07/12/2018 19:10 9.9 77 0.0 0 0.0 8.0 28.7 323
07/12/2018 19:20 10.0 77 0.0 0 0.0 8.4 30.2 322
07/12/2018 19:30 10.1 76 0.0 0 0.0 8.1 29.2 322
07/12/2018 19:40 10.1 77 0.0 0 0.0 7.7 27.8 321
07/12/2018 19:50 10.1 77 0.0 0 0.0 7.4 26.5 324
07/12/2018 20:00 10.2 77 0.0 0 0.0 7.5 27.0 321
07/12/2018 20:10 10.1 77 0.0 0 0.0 7.4 26.6 321
07/12/2018 20:20 10.1 77 0.0 0 0.0 6.8 24.6 319
07/12/2018 20:30 10.1 77 0.0 0 0.0 6.4 23.0 309
07/12/2018 20:40 10.1 78 0.0 0 0.0 6.5 23.3 309
07/12/2018 20:50 10.0 80 0.0 0 0.0 5.2 18.8 326
07/12/2018 21:00 9.6 84 0.0 0 0.0 6.4 22.9 309
07/12/2018 21:10 9.4 87 0.0 0 0.0 5.5 19.9 306
07/12/2018 21:20 9.3 86 0.0 0 0.0 4.8 17.4 315
07/12/2018 21:30 9.6 83 0.0 0 0.0 5.9 21.2 303
07/12/2018 21:40 9.6 83 0.0 0 0.0 5.8 20.9 300
07/12/2018 21:50 9.6 83 0.0 0 0.0 4.9 17.7 303
07/12/2018 22:00 9.5 84 0.0 0 0.0 4.7 17.0 300
07/12/2018 22:10 9.4 84 0.0 0 0.0 4.2 15.3 302
07/12/2018 22:20 9.4 84 0.0 0 0.0 4.5 16.3 303
07/12/2018 22:30 9.4 85 0.0 0 0.0 4.1 14.7 306
07/12/2018 22:40 9.4 85 0.0 0 0.0 4.3 15.4 307
07/12/2018 22:50 9.5 85 0.0 0 0.0 4.1 14.7 323
07/12/2018 23:00 9.5 85 0.0 0 0.0 3.7 13.3 335
07/12/2018 23:10 9.4 85 0.0 0 0.0 3.7 13.1 343
07/12/2018 23:20 9.3 85 0.0 0 0.0 3.5 12.5 351
07/12/2018 23:30 9.2 86 0.0 0 0.0 2.9 10.3 346
07/12/2018 23:40 9.0 86 0.0 0 0.0 3.2 11.4 348
07/12/2018 23:50 8.9 86 0.0 0 0.0 3.1 11.3 345
Anterior Página 1 de 1 Siguiente

NOTA: Tipo de datos según el color:
   - Valores diarios o 10 minutos correctos
   - Valores diarios calculados a partir de un número de datos 10 minutos menor que 144 y mayor que 120, o de un número de datos semihorarios menor que 48 y mayor que 40 (caso de las estaciones de Riegos de Navarra y del MARM)
   - Valores diez minutos estimados


Contacto        Enlaces        Aviso legal